Overview Statistics Trail Chart Weather Telemetry Raw packets
 

This is the latest recevied weather packets stored in our database for station/object KB1RMA-4. If no packets are shown the sender has not sent any weather packets the latest 10 day(s).

<< 91 92 93 94 95 96 97 >>
Time Temp. Humidity Pressure Rain* Wind** Luminosity Snow
1787957079 26.11° C 72% 1014.1 hPa 0 mm - 21 W/m² -
1787956779 26.11° C 72% 1014.4 hPa 0 mm - 27 W/m² -
1787956475 26.11° C 73% 1014.4 hPa 0 mm - 34 W/m² -
1787956175 25.56° C 73% 1014.3 hPa 0 mm - 36 W/m² -
1787955874 25.56° C 74% 1014.2 hPa 0 mm - 40 W/m² -
1787955571 25.56° C 74% 1014.3 hPa 0 mm - 57 W/m² -
1787955266 25° C 74% 1014.3 hPa 0 mm - 63 W/m² -
1787954966 25° C 75% 1014.3 hPa 0 mm - 69 W/m² -
1787954662 25.56° C 74% 1014.4 hPa 0 mm - 92 W/m² -
1787954361 26.11° C 72% 1014.3 hPa 0 mm - 113 W/m² -
1787954057 25.56° C 72% 1014.3 hPa 0 mm - 61 W/m² -
1787953755 25.56° C 72% 1014.3 hPa 0 mm - 51 W/m² -
1787953451 26.11° C 71% 1014.5 hPa 0 mm - 52 W/m² -
1787953149 26.67° C 71% 1014.3 hPa 0 mm - 61 W/m² -
1787952848 27.22° C 69% 1014.1 hPa 0 mm - 72 W/m² -
1787952548 27.22° C 68% 1014 hPa 0 mm - 76 W/m² -
1787952246 27.78° C 67% 1014.2 hPa 0 mm - 85 W/m² -
1787951943 28.33° C 65% 1014.1 hPa 0 mm - 99 W/m² -
1787951639 27.78° C 67% 1014.5 hPa 0 mm - 250 W/m² -
1787951334 27.78° C 68% 1014.3 hPa 0 mm - 79 W/m² -
1787951030 28.89° C 65% 1014.1 hPa 0 mm - 96 W/m² -
1787950725 28.33° C 66% 1014.4 hPa 0 mm - 286 W/m² -
1787950421 27.78° C 66% 1014.6 hPa 0 mm - 301 W/m² -
1787950117 27.78° C 67% 1014.4 hPa 0 mm - 287 W/m² -
1787949813 28.33° C 65% 1014.4 hPa 0 mm - 322 W/m² -

* Rain latest hour (hover to see other rain measurements)
** Current wind speed in m/s (hover to see current wind gust speed)